| time (UTC) | temp F | wind direction | speed MPH | gust MPH | rain 1hr in | rain 24hr in | rain mn in | humidity % | barometer mb |
| 20260903201803 | 100 | 129 | 19.0 | 29.0 | 0.00 | 0.00 | 0.00 | 42 | 1007.6 |
| 20260903200903 | 100 | 132 | 18.0 | 29.0 | 0.00 | 0.00 | 0.00 | 42 | 1007.6 |
| 20260903200215 | 100 | 139 | 18.0 | 31.0 | 0.00 | 0.00 | 0.00 | 44 | 1007.8 |
| 20260903195616 | 100 | 137 | 20.0 | 29.0 | 0.00 | 0.00 | 0.00 | 42 | 1007.8 |
| 20260903194714 | 100 | 138 | 19.0 | 29.0 | 0.00 | 0.00 | 0.00 | 43 | 1007.8 |
| 20260903193603 | 100 | 142 | 20.0 | 31.0 | 0.00 | 0.00 | 0.00 | 43 | 1007.9 |
| 20260903192913 | 100 | 147 | 22.0 | 31.0 | 0.00 | 0.00 | 0.00 | 44 | 1007.9 |
| 20260903192016 | 99 | 139 | 21.0 | 27.0 | 0.00 | 0.00 | 0.00 | 44 | 1008.0 |
| 20260903190903 | 100 | 141 | 20.0 | 27.0 | 0.00 | 0.00 | 0.00 | 43 | 1008.1 |
| 20260903190003 | 99 | 127 | 22.0 | 30.0 | 0.00 | 0.00 | 0.00 | 45 | 1008.1 |
| 20260903185403 | 99 | 142 | 19.0 | 29.0 | 0.00 | 0.00 | 0.00 | 45 | 1008.3 |
| 20260903184714 | 99 | 149 | 21.0 | 31.0 | 0.00 | 0.00 | 0.00 | 44 | 1008.3 |
| 20260903183603 | 98 | 141 | 21.0 | 29.0 | 0.00 | 0.00 | 0.00 | 46 | 1008.6 |
| 20260903182704 | 98 | 139 | 19.0 | 26.0 | 0.00 | 0.00 | 0.00 | 46 | 1008.7 |
| 20260903182016 | 98 | 141 | 20.0 | 27.0 | 0.00 | 0.00 | 0.00 | 48 | 1008.9 |
| 20260903181114 | 97 | 142 | 21.0 | 29.0 | 0.00 | 0.00 | 0.00 | 47 | 1009.0 |
| 20260903180216 | 96 | 136 | 17.0 | 29.0 | 0.00 | 0.00 | 0.00 | 49 | 1009.2 |
| 20260903175403 | 96 | 133 | 16.0 | 24.0 | 0.00 | 0.00 | 0.00 | 51 | 1009.3 |
| 20260903174715 | 96 | 133 | 18.0 | 25.0 | 0.00 | 0.00 | 0.00 | 50 | 1009.4 |
| 20260903173603 | 96 | 156 | 23.0 | 35.0 | 0.00 | 0.00 | 0.00 | 49 | 1009.6 |
| 20260903172703 | 96 | 144 | 20.0 | 29.0 | 0.00 | 0.00 | 0.00 | 49 | 1009.5 |
| 20260903172017 | 95 | 147 | 21.0 | 29.0 | 0.00 | 0.00 | 0.00 | 50 | 1009.7 |
| 20260903171114 | 95 | 141 | 19.0 | 27.0 | 0.00 | 0.00 | 0.00 | 51 | 1009.8 |
| 20260903170217 | 94 | 145 | 20.0 | 30.0 | 0.00 | 0.00 | 0.00 | 53 | 1009.8 |
| 20260903165403 | 91 | 142 | 18.0 | 27.0 | 0.00 | 0.00 | 0.00 | 57 | 1009.8 |
| 20260903164503 | 91 | 141 | 19.0 | 27.0 | 0.00 | 0.00 | 0.00 | 58 | 1009.9 |
| 20260903163603 | 91 | 141 | 17.0 | 27.0 | 0.00 | 0.00 | 0.00 | 57 | 1010.0 |
| 20260903162703 | 90 | 146 | 19.0 | 28.0 | 0.00 | 0.00 | 0.00 | 59 | 1010.0 |
| 20260903162013 | 90 | 149 | 20.0 | 30.0 | 0.00 | 0.00 | 0.00 | 58 | 1010.0 |
| 20260903160903 | 91 | 153 | 21.0 | 31.0 | 0.00 | 0.00 | 0.00 | 57 | 1009.8 |
| 20260903160003 | 92 | 147 | 21.0 | 30.0 | 0.00 | 0.00 | 0.00 | 55 | 1009.8 |
| 20260903155403 | 92 | 150 | 19.0 | 30.0 | 0.00 | 0.00 | 0.00 | 56 | 1009.8 |
| 20260903154503 | 92 | 150 | 18.0 | 27.0 | 0.00 | 0.00 | 0.00 | 57 | 1009.8 |
| 20260903153604 | 91 | 149 | 18.0 | 29.0 | 0.00 | 0.00 | 0.00 | 57 | 1009.7 |
| 20260903152916 | 88 | 152 | 21.0 | 29.0 | 0.00 | 0.00 | 0.00 | 61 | 1009.8 |
| 20260903152013 | 88 | 149 | 22.0 | 31.0 | 0.00 | 0.00 | 0.00 | 59 | 1009.9 |
| 20260903151116 | 88 | 147 | 20.0 | 31.0 | 0.00 | 0.00 | 0.00 | 60 | 1009.8 |
| 20260903150213 | 87 | 148 | 18.0 | 28.0 | 0.00 | 0.00 | 0.00 | 61 | 1009.9 |
| 20260903145614 | 88 | 144 | 17.0 | 26.0 | 0.00 | 0.00 | 0.00 | 61 | 1010.0 |
| 20260903144717 | 89 | 152 | 17.0 | 29.0 | 0.00 | 0.00 | 0.00 | 60 | 1009.9 |
| 20260903143814 | 87 | 140 | 13.0 | 18.0 | 0.00 | 0.00 | 0.00 | 64 | 1010.1 |
| 20260903142917 | 85 | 144 | 14.0 | 21.0 | 0.00 | 0.00 | 0.00 | 66 | 1010.3 |
| 20260903141803 | 84 | 138 | 13.0 | 18.0 | 0.00 | 0.00 | 0.00 | 67 | 1010.3 |
| 20260903140903 | 84 | 137 | 13.0 | 18.0 | 0.00 | 0.00 | 0.00 | 66 | 1010.4 |
| 20260903140003 | 83 | 146 | 12.0 | 18.0 | 0.00 | 0.00 | 0.00 | 67 | 1010.5 |
| 20260903135615 | 83 | 148 | 12.0 | 18.0 | 0.00 | 0.00 | 0.00 | 67 | 1010.5 |
| 20260903134503 | 83 | 141 | 11.0 | 17.0 | 0.00 | 0.00 | 0.00 | 68 | 1010.4 |
| 20260903133603 | 82 | 137 | 11.0 | 15.0 | 0.00 | 0.00 | 0.00 | 68 | 1010.4 |
| 20260903132703 | 81 | 129 | 9.0 | 13.0 | 0.00 | 0.00 | 0.00 | 70 | 1010.6 |
| 20260903131803 | 80 | 128 | 9.0 | 11.0 | 0.00 | 0.00 | 0.00 | 71 | 1010.6 |
| 20260903130903 | 80 | 125 | 9.0 | 11.0 | 0.00 | 0.00 | 0.00 | 71 | 1010.6 |
| 20260903130003 | 79 | 130 | 8.0 | 10.0 | 0.00 | 0.00 | 0.00 | 72 | 1010.6 |
| 20260903125404 | 79 | 132 | 7.0 | 10.0 | 0.00 | 0.00 | 0.00 | 72 | 1010.6 |
| 20260903124504 | 78 | 113 | 8.0 | 11.0 | 0.00 | 0.00 | 0.00 | 73 | 1010.5 |
| 20260903123603 | 77 | 81 | 9.0 | 11.0 | 0.00 | 0.00 | 0.00 | 74 | 1010.3 |
| 20260903122913 | 77 | 86 | 9.0 | 11.0 | 0.00 | 0.00 | 0.00 | 74 | 1010.3 |
| 20260903121803 | 76 | 129 | 8.0 | 10.0 | 0.00 | 0.00 | 0.00 | 75 | 1010.3 |
| 20260903120904 | 77 | 126 | 8.0 | 10.0 | 0.00 | 0.00 | 0.00 | 74 | 1010.3 |
| 20260903120003 | 77 | 130 | 8.0 | 10.0 | 0.00 | 0.00 | 0.00 | 74 | 1010.2 |
| 20260903115403 | 77 | 132 | 9.0 | 10.0 | 0.00 | 0.00 | 0.00 | 73 | 1010.1 |
| 20260903114503 | 77 | 131 | 8.0 | 10.0 | 0.00 | 0.00 | 0.00 | 72 | 1010.1 |
| 20260903113603 | 78 | 134 | 8.0 | 11.0 | 0.00 | 0.00 | 0.00 | 70 | 1010.1 |
| 20260903112703 | 79 | 141 | 9.0 | 13.0 | 0.00 | 0.00 | 0.00 | 69 | 1010.0 |
| 20260903111803 | 79 | 143 | 9.0 | 12.0 | 0.00 | 0.00 | 0.00 | 69 | 1010.0 |
| 20260903110903 | 78 | 141 | 8.0 | 11.0 | 0.00 | 0.00 | 0.00 | 70 | 1010.0 |
| 20260903110215 | 78 | 138 | 9.0 | 12.0 | 0.00 | 0.00 | 0.00 | 70 | 1010.0 |
| 20260903105403 | 78 | 133 | 10.0 | 14.0 | 0.00 | 0.00 | 0.00 | 70 | 1009.9 |
| 20260903104714 | 78 | 132 | 10.0 | 12.0 | 0.00 | 0.00 | 0.00 | 70 | 1009.9 |
| 20260903103603 | 77 | 129 | 9.0 | 11.0 | 0.00 | 0.00 | 0.00 | 71 | 1010.0 |
| 20260903102703 | 77 | 105 | 9.0 | 11.0 | 0.00 | 0.00 | 0.00 | 71 | 1010.0 |
| 20260903102016 | 77 | 99 | 9.0 | 11.0 | 0.00 | 0.00 | 0.00 | 71 | 1010.0 |
| 20260903101114 | 77 | 98 | 9.0 | 10.0 | 0.00 | 0.00 | 0.00 | 71 | 1010.0 |
| 20260903100004 | 78 | 126 | 8.0 | 10.0 | 0.00 | 0.00 | 0.00 | 70 | 1010.0 |
| 20260903095618 | 78 | 131 | 8.0 | 10.0 | 0.00 | 0.00 | 0.00 | 70 | 1010.0 |
| 20260903094715 | 78 | 134 | 7.0 | 9.0 | 0.00 | 0.00 | 0.00 | 70 | 1010.0 |
| 20260903093603 | 78 | 131 | 9.0 | 12.0 | 0.00 | 0.00 | 0.00 | 70 | 1009.9 |
| 20260903092704 | 78 | 126 | 9.0 | 12.0 | 0.00 | 0.00 | 0.00 | 70 | 1009.9 |
| 20260903092017 | 78 | 122 | 9.0 | 12.0 | 0.00 | 0.00 | 0.00 | 70 | 1009.9 |
| 20260903090903 | 78 | 129 | 10.0 | 12.0 | 0.00 | 0.00 | 0.00 | 69 | 1009.8 |
| 20260903090217 | 79 | 130 | 9.0 | 12.0 | 0.00 | 0.00 | 0.00 | 68 | 1009.8 |
| 20260903085613 | 79 | 129 | 10.0 | 12.0 | 0.00 | 0.00 | 0.00 | 68 | 1009.8 |
| 20260903084716 | 79 | 131 | 10.0 | 13.0 | 0.00 | 0.00 | 0.00 | 68 | 1009.7 |
| 20260903083813 | 79 | 131 | 10.0 | 13.0 | 0.00 | 0.00 | 0.00 | 68 | 1009.8 |
| 20260903082915 | 78 | 129 | 10.0 | 13.0 | 0.00 | 0.00 | 0.00 | 69 | 1009.8 |
| 20260903081803 | 78 | 128 | 10.0 | 12.0 | 0.00 | 0.00 | 0.00 | 69 | 1009.9 |
| 20260903081115 | 78 | 131 | 10.0 | 12.0 | 0.00 | 0.00 | 0.00 | 69 | 1009.9 |
| 20260903080003 | 78 | 129 | 9.0 | 12.0 | 0.00 | 0.00 | 0.00 | 69 | 1009.9 |
| 20260903075403 | 78 | 126 | 10.0 | 13.0 | 0.00 | 0.00 | 0.00 | 69 | 1009.8 |
| 20260903074716 | 79 | 128 | 10.0 | 13.0 | 0.00 | 0.00 | 0.00 | 68 | 1009.8 |
| 20260903073813 | 79 | 129 | 10.0 | 12.0 | 0.00 | 0.00 | 0.00 | 68 | 1009.9 |
| 20260903072703 | 79 | 128 | 10.0 | 13.0 | 0.00 | 0.00 | 0.00 | 67 | 1010.0 |
| 20260903071803 | 80 | 128 | 10.0 | 13.0 | 0.00 | 0.00 | 0.00 | 67 | 1010.0 |
| 20260903071116 | 80 | 130 | 10.0 | 13.0 | 0.00 | 0.00 | 0.00 | 66 | 1010.0 |
| 20260903070003 | 80 | 131 | 10.0 | 12.0 | 0.00 | 0.00 | 0.00 | 65 | 1010.0 |
| 20260903065403 | 80 | 130 | 10.0 | 14.0 | 0.00 | 0.00 | 0.00 | 65 | 1010.1 |
| 20260903064717 | 80 | 129 | 11.0 | 14.0 | 0.00 | 0.00 | 0.00 | 65 | 1010.0 |
| 20260903063814 | 80 | 129 | 11.0 | 15.0 | 0.00 | 0.00 | 0.00 | 65 | 1010.0 |
| 20260903062703 | 80 | 129 | 11.0 | 15.0 | 0.00 | 0.00 | 0.00 | 66 | 1010.0 |
| 20260903061803 | 80 | 130 | 11.0 | 14.0 | 0.00 | 0.00 | 0.00 | 66 | 1009.9 |
| 20260903061116 | 80 | 130 | 11.0 | 14.0 | 0.00 | 0.00 | 0.00 | 66 | 1009.9 |
| 20260903060214 | 80 | 130 | 11.0 | 14.0 | 0.00 | 0.00 | 0.00 | 66 | 1009.8 |
| 20260903055403 | 80 | 129 | 11.0 | 15.0 | 0.00 | 0.00 | 0.00 | 66 | 1009.9 |
| 20260903054503 | 81 | 128 | 12.0 | 17.0 | 0.00 | 0.00 | 0.00 | 66 | 1009.8 |
| 20260903053603 | 81 | 126 | 13.0 | 16.0 | 0.00 | 0.00 | 0.00 | 66 | 1009.8 |
| 20260903052912 | 81 | 125 | 13.0 | 15.0 | 0.00 | 0.00 | 0.00 | 65 | 1009.8 |
| 20260903051803 | 81 | 126 | 11.0 | 14.0 | 0.00 | 0.00 | 0.00 | 65 | 1009.8 |
| 20260903051117 | 82 | 126 | 11.0 | 14.0 | 0.00 | 0.00 | 0.00 | 64 | 1009.8 |
| 20260903050214 | 82 | 124 | 13.0 | 17.0 | 0.00 | 0.00 | 0.00 | 63 | 1009.8 |
| 20260903045616 | 82 | 123 | 12.0 | 17.0 | 0.00 | 0.00 | 0.00 | 62 | 1009.8 |
| 20260903044503 | 82 | 123 | 12.0 | 16.0 | 0.00 | 0.00 | 0.00 | 63 | 1009.7 |
| 20260903043815 | 82 | 124 | 12.0 | 15.0 | 0.00 | 0.00 | 0.00 | 62 | 1009.7 |
| 20260903042918 | 82 | 123 | 13.0 | 16.0 | 0.00 | 0.00 | 0.00 | 62 | 1009.6 |
| 20260903042015 | 83 | 123 | 13.0 | 16.0 | 0.00 | 0.00 | 0.00 | 61 | 1009.7 |
| 20260903041112 | 83 | 124 | 13.0 | 15.0 | 0.00 | 0.00 | 0.00 | 61 | 1009.7 |
| 20260903040003 | 83 | 124 | 12.0 | 15.0 | 0.00 | 0.00 | 0.00 | 60 | 1009.7 |
| 20260903035616 | 83 | 124 | 12.0 | 15.0 | 0.00 | 0.00 | 0.00 | 60 | 1009.7 |
| 20260903034714 | 84 | 125 | 13.0 | 15.0 | 0.00 | 0.00 | 0.00 | 59 | 1009.7 |
| 20260903033816 | 84 | 124 | 13.0 | 16.0 | 0.00 | 0.00 | 0.00 | 59 | 1009.6 |
| 20260903032703 | 84 | 125 | 13.0 | 16.0 | 0.00 | 0.00 | 0.00 | 59 | 1009.7 |
| 20260903032016 | 84 | 124 | 13.0 | 16.0 | 0.00 | 0.00 | 0.00 | 58 | 1009.7 |
| 20260903031113 | 84 | 124 | 13.0 | 16.0 | 0.00 | 0.00 | 0.00 | 59 | 1009.7 |
| 20260903030215 | 85 | 124 | 13.0 | 17.0 | 0.00 | 0.00 | 0.00 | 58 | 1009.7 |
| 20260903025617 | 85 | 124 | 13.0 | 17.0 | 0.00 | 0.00 | 0.00 | 58 | 1009.5 |
| 20260903024503 | 86 | 122 | 14.0 | 17.0 | 0.00 | 0.00 | 0.00 | 57 | 1009.4 |
| 20260903023817 | 86 | 123 | 14.0 | 17.0 | 0.00 | 0.00 | 0.00 | 56 | 1009.3 |
| 20260903022703 | 86 | 123 | 13.0 | 17.0 | 0.00 | 0.00 | 0.00 | 55 | 1009.3 |
| 20260903021803 | 86 | 122 | 12.0 | 17.0 | 0.00 | 0.00 | 0.00 | 55 | 1009.2 |
| 20260903020904 | 87 | 121 | 12.0 | 15.0 | 0.00 | 0.00 | 0.00 | 55 | 1009.0 |
| 20260903020004 | 87 | 119 | 13.0 | 17.0 | 0.00 | 0.00 | 0.00 | 54 | 1009.0 |
| 20260903015613 | 87 | 119 | 12.0 | 17.0 | 0.00 | 0.00 | 0.00 | 54 | 1009.0 |
| 20260903014715 | 88 | 119 | 12.0 | 16.0 | 0.00 | 0.00 | 0.00 | 54 | 1008.9 |
| 20260903013817 | 88 | 118 | 12.0 | 17.0 | 0.00 | 0.00 | 0.00 | 53 | 1008.8 |
| 20260903012703 | 89 | 118 | 12.0 | 16.0 | 0.00 | 0.00 | 0.00 | 52 | 1008.7 |
| 20260903011803 | 89 | 118 | 12.0 | 15.0 | 0.00 | 0.00 | 0.00 | 52 | 1008.7 |
| 20260903011114 | 89 | 117 | 13.0 | 16.0 | 0.00 | 0.00 | 0.00 | 51 | 1008.6 |
| 20260903010003 | 90 | 117 | 13.0 | 16.0 | 0.00 | 0.00 | 0.00 | 50 | 1008.6 |
| 20260903005403 | 90 | 118 | 13.0 | 17.0 | 0.00 | 0.00 | 0.00 | 50 | 1008.6 |
| 20260903004503 | 91 | 119 | 12.0 | 17.0 | 0.00 | 0.00 | 0.00 | 50 | 1008.7 |
| 20260903003603 | 92 | 119 | 13.0 | 16.0 | 0.00 | 0.00 | 0.00 | 48 | 1008.6 |
| 20260903002703 | 93 | 119 | 13.0 | 16.0 | 0.00 | 0.00 | 0.00 | 47 | 1008.7 |
| 20260903001803 | 94 | 119 | 12.0 | 16.0 | 0.00 | 0.00 | 0.00 | 47 | 1008.7 |
| 20260903000903 | 94 | 122 | 12.0 | 16.0 | 0.00 | 0.00 | 0.00 | 46 | 1008.6 |
| 20260903000218 | 95 | 122 | 12.0 | 16.0 | 0.00 | 0.00 | 0.00 | 45 | 1008.6 |
| 20260902235614 | 95 | 117 | 12.0 | 16.0 | 0.00 | 0.00 | 0.00 | 45 | 1008.6 |
| 20260902234503 | 96 | 120 | 12.0 | 16.0 | 0.00 | 0.00 | 0.00 | 43 | 1008.6 |
| 20260902233813 | 97 | 121 | 13.0 | 16.0 | 0.00 | 0.00 | 0.00 | 42 | 1008.6 |
| 20260902232703 | 97 | 122 | 13.0 | 19.0 | 0.00 | 0.00 | 0.00 | 41 | 1008.6 |
| 20260902232013 | 98 | 120 | 13.0 | 19.0 | 0.00 | 0.00 | 0.00 | 41 | 1008.6 |
| 20260902231116 | 99 | 123 | 12.0 | 16.0 | 0.00 | 0.00 | 0.00 | 40 | 1008.6 |
| 20260902230213 | 100 | 128 | 15.0 | 20.0 | 0.00 | 0.00 | 0.00 | 36 | 1008.6 |
| 20260902225614 | 100 | 129 | 15.0 | 21.0 | 0.00 | 0.00 | 0.00 | 36 | 1008.7 |
| 20260902224717 | 100 | 124 | 14.0 | 21.0 | 0.00 | 0.00 | 0.00 | 37 | 1008.6 |
| 20260902223603 | 100 | 122 | 15.0 | 20.0 | 0.00 | 0.00 | 0.00 | 35 | 1008.7 |
| 20260902222703 | 101 | 131 | 16.0 | 21.0 | 0.00 | 0.00 | 0.00 | 34 | 1008.7 |
| 20260902222014 | 101 | 129 | 18.0 | 25.0 | 0.00 | 0.00 | 0.00 | 33 | 1008.7 |
| 20260902221116 | 102 | 123 | 15.0 | 24.0 | 0.00 | 0.00 | 0.00 | 33 | 1008.7 |
| 20260902220003 | 102 | 139 | 17.0 | 22.0 | 0.00 | 0.00 | 0.00 | 34 | 1008.8 |
| 20260902215403 | 102 | 140 | 17.0 | 22.0 | 0.00 | 0.00 | 0.00 | 33 | 1008.8 |
| 20260902214503 | 102 | 140 | 14.0 | 20.0 | 0.00 | 0.00 | 0.00 | 33 | 1008.8 |
| 20260902213815 | 102 | 152 | 17.0 | 27.0 | 0.00 | 0.00 | 0.00 | 33 | 1008.9 |
| 20260902212917 | 102 | 142 | 15.0 | 23.0 | 0.00 | 0.00 | 0.00 | 33 | 1009.0 |
| 20260902212014 | 102 | 129 | 17.0 | 24.0 | 0.00 | 0.00 | 0.00 | 32 | 1009.2 |
| 20260902211117 | 102 | 144 | 18.0 | 29.0 | 0.00 | 0.00 | 0.00 | 33 | 1009.2 |
| 20260902210214 | 103 | 149 | 16.0 | 26.0 | 0.00 | 0.00 | 0.00 | 34 | 1009.3 |
| 20260902205403 | 103 | 146 | 17.0 | 25.0 | 0.00 | 0.00 | 0.00 | 33 | 1009.4 |
| 20260902204503 | 102 | 144 | 18.0 | 25.0 | 0.00 | 0.00 | 0.00 | 34 | 1009.5 |
| 20260902203815 | 102 | 150 | 17.0 | 28.0 | 0.00 | 0.00 | 0.00 | 34 | 1009.6 |
| 20260902202913 | 103 | 142 | 18.0 | 28.0 | 0.00 | 0.00 | 0.00 | 34 | 1009.8 |